createdAt,value
2022-12-24T00:01:43.820Z,8.50
2022-12-24T00:04:10.810Z,9.25
2022-12-24T00:06:37.594Z,9.25
2022-12-24T00:09:04.593Z,5.75
2022-12-24T00:11:31.604Z,2.67
2022-12-24T00:13:59.721Z,4.50
2022-12-24T00:16:26.783Z,5.67
2022-12-24T00:18:53.782Z,10.67
2022-12-24T00:21:20.735Z,8.67
2022-12-24T00:23:47.517Z,9.33
2022-12-24T00:26:14.963Z,18.25
2022-12-24T00:28:42.612Z,13.33
2022-12-24T00:31:16.455Z,9.33
2022-12-24T00:33:43.517Z,1.50
2022-12-24T00:36:10.397Z,2.33
2022-12-24T00:38:38.000Z,1.00
2022-12-24T00:41:08.570Z,1.00
2022-12-24T00:43:35.437Z,0.75
2022-12-24T00:46:02.256Z,0.67
2022-12-24T00:48:30.488Z,0.25
2022-12-24T00:50:57.296Z,2.67
2022-12-24T00:53:24.454Z,10.33
2022-12-24T00:55:51.446Z,16.67
2022-12-24T00:58:18.254Z,10.33
2022-12-24T01:00:45.297Z,7.00
2022-12-24T01:03:12.256Z,8.33
2022-12-24T01:05:40.533Z,7.00
2022-12-24T01:08:07.284Z,1.50
2022-12-24T01:10:34.125Z,2.50
2022-12-24T01:13:02.220Z,2.00
2022-12-24T01:15:29.565Z,1.33
2022-12-24T01:17:56.656Z,5.67
2022-12-24T01:20:23.719Z,3.00
2022-12-24T01:22:52.143Z,3.67
2022-12-24T01:25:18.859Z,3.00
2022-12-24T01:27:45.712Z,3.33
2022-12-24T01:30:14.247Z,3.67
2022-12-24T01:32:41.041Z,3.33
2022-12-24T01:35:09.544Z,4.67
2022-12-24T01:37:36.594Z,7.67
2022-12-24T01:40:07.424Z,14.00
2022-12-24T01:42:34.217Z,8.67
2022-12-24T01:45:42.390Z,0.75
2022-12-24T01:48:21.111Z,4.00
2022-12-24T01:50:53.752Z,0.00
2022-12-24T01:53:20.852Z,2.00
2022-12-24T01:55:50.701Z,1.33
2022-12-24T01:58:23.970Z,2.00
2022-12-24T02:00:53.900Z,3.00
2022-12-24T02:03:21.512Z,0.00
2022-12-24T02:05:52.665Z,1.67
2022-12-24T02:08:20.156Z,2.00
2022-12-24T02:10:50.383Z,1.00
2022-12-24T02:13:20.958Z,3.25
2022-12-24T02:16:08.631Z,0.00
2022-12-24T02:18:49.697Z,1.00
2022-12-24T02:21:51.718Z,1.00
2022-12-24T02:24:41.407Z,1.00
2022-12-24T02:27:21.091Z,0.00
2022-12-24T02:30:14.551Z,6.00
2022-12-24T02:33:11.286Z,1.75
2022-12-24T02:35:50.179Z,2.75
2022-12-24T02:38:25.688Z,1.00
2022-12-24T02:41:00.305Z,1.00
2022-12-24T02:43:34.513Z,2.00
2022-12-24T02:46:11.604Z,2.00
2022-12-24T02:48:44.820Z,2.00
2022-12-24T02:51:12.183Z,1.50
2022-12-24T02:53:40.211Z,1.50
2022-12-24T02:56:30.603Z,2.00
2022-12-24T02:59:33.633Z,2.50
2022-12-24T03:02:24.287Z,4.25
2022-12-24T03:05:04.034Z,3.50
2022-12-24T03:07:44.938Z,2.25
2022-12-24T03:10:23.758Z,2.00
2022-12-24T03:12:56.030Z,2.50
2022-12-24T03:15:27.323Z,3.00
2022-12-24T03:18:02.144Z,1.00
2022-12-24T03:20:37.340Z,2.00
2022-12-24T03:23:04.788Z,2.00
2022-12-24T03:25:34.744Z,1.00
2022-12-24T03:28:06.012Z,1.50
2022-12-24T03:30:33.503Z,5.00
2022-12-24T03:33:02.212Z,3.33
2022-12-24T03:35:29.010Z,2.50
2022-12-24T03:37:55.799Z,3.00
2022-12-24T03:40:22.633Z,3.00
2022-12-24T03:42:49.706Z,2.00
2022-12-24T03:45:16.751Z,1.25
2022-12-24T03:47:43.685Z,1.50
2022-12-24T03:50:11.843Z,0.75
2022-12-24T03:52:38.726Z,5.00
2022-12-24T03:55:06.850Z,2.25
2022-12-24T03:57:33.880Z,0.33
2022-12-24T04:00:00.684Z,2.00
2022-12-24T04:02:27.692Z,2.00
2022-12-24T04:04:54.773Z,4.67
2022-12-24T04:07:22.918Z,4.00
2022-12-24T04:09:49.873Z,1.67
2022-12-24T04:12:16.613Z,0.33
2022-12-24T04:14:43.567Z,5.33
2022-12-24T04:17:10.303Z,2.33
2022-12-24T04:19:37.101Z,1.00
2022-12-24T04:22:03.896Z,3.33
2022-12-24T04:24:32.022Z,3.00
2022-12-24T04:26:58.956Z,2.33
2022-12-24T04:29:25.820Z,1.00
2022-12-24T04:31:52.713Z,1.33
2022-12-24T04:34:19.735Z,3.75
2022-12-24T04:36:46.576Z,3.50
2022-12-24T04:39:13.560Z,2.25
2022-12-24T04:41:41.902Z,2.25
2022-12-24T04:44:09.908Z,2.00
2022-12-24T04:46:37.131Z,1.75
2022-12-24T04:49:03.915Z,6.00
2022-12-24T04:51:30.777Z,2.33
2022-12-24T04:53:58.271Z,4.33
2022-12-24T04:56:28.800Z,4.67
2022-12-24T04:58:59.099Z,5.00
2022-12-24T05:01:29.716Z,7.00
2022-12-24T05:03:56.987Z,3.67
2022-12-24T05:06:28.743Z,2.00
2022-12-24T05:08:56.736Z,2.50
2022-12-24T05:11:25.034Z,4.00
2022-12-24T05:13:52.372Z,3.00
2022-12-24T05:16:23.266Z,3.00
2022-12-24T05:18:51.059Z,3.50
2022-12-24T05:21:21.463Z,2.00
2022-12-24T05:23:48.803Z,5.33
2022-12-24T05:26:19.065Z,1.00
2022-12-24T05:28:46.047Z,2.67
2022-12-24T05:31:12.906Z,3.75
2022-12-24T05:33:41.079Z,1.33
2022-12-24T05:36:09.529Z,2.50
2022-12-24T05:38:36.412Z,2.75
2022-12-24T05:41:03.613Z,5.25
2022-12-24T05:43:30.528Z,4.00
2022-12-24T05:45:59.711Z,2.75
2022-12-24T05:48:27.093Z,2.00
2022-12-24T05:50:56.094Z,1.00
2022-12-24T05:53:23.067Z,2.00
2022-12-24T05:55:49.945Z,1.00
2022-12-24T05:58:17.052Z,3.33
2022-12-24T06:00:44.102Z,4.00
2022-12-24T06:03:11.140Z,3.00
2022-12-24T06:05:37.958Z,4.00
2022-12-24T06:08:06.440Z,2.00
2022-12-24T06:10:33.491Z,2.25
2022-12-24T06:13:00.206Z,5.33
2022-12-24T06:15:27.264Z,1.00
2022-12-24T06:17:54.149Z,2.00
2022-12-24T06:20:20.963Z,2.75
2022-12-24T06:22:47.716Z,3.00
2022-12-24T06:25:16.339Z,3.00
2022-12-24T06:27:43.324Z,3.67
2022-12-24T06:30:11.086Z,1.00
2022-12-24T06:32:38.245Z,1.50
2022-12-24T06:35:05.755Z,5.25
2022-12-24T06:37:32.661Z,2.75
2022-12-24T06:39:59.797Z,2.25
2022-12-24T06:42:27.840Z,4.75
2022-12-24T06:44:54.726Z,2.00
2022-12-24T06:47:21.496Z,1.00
2022-12-24T06:49:48.296Z,4.25
2022-12-24T06:52:15.133Z,4.25
2022-12-24T06:54:41.934Z,2.00
2022-12-24T06:57:08.707Z,3.00
2022-12-24T06:59:36.876Z,3.50
2022-12-24T07:02:04.032Z,2.67
2022-12-24T07:04:31.400Z,3.25
2022-12-24T07:06:58.284Z,5.25
2022-12-24T07:09:25.254Z,5.00
2022-12-24T07:11:52.141Z,2.00
2022-12-24T07:14:19.218Z,6.00
2022-12-24T07:16:47.624Z,5.25
2022-12-24T07:19:15.679Z,3.00
2022-12-24T07:21:42.432Z,6.75
2022-12-24T07:24:09.280Z,2.50
2022-12-24T07:26:36.126Z,2.00
2022-12-24T07:29:03.623Z,4.00
2022-12-24T07:31:30.356Z,2.50
2022-12-24T07:33:58.503Z,1.75
2022-12-24T07:36:25.670Z,3.33
2022-12-24T07:38:52.867Z,2.33
2022-12-24T07:41:19.705Z,2.67
2022-12-24T07:43:46.843Z,1.25
2022-12-24T07:46:14.041Z,2.00
2022-12-24T07:48:41.152Z,4.67
2022-12-24T07:51:09.412Z,1.67
2022-12-24T07:53:36.304Z,3.00
2022-12-24T07:56:07.631Z,1.75
2022-12-24T07:58:39.132Z,2.00
2022-12-24T08:01:06.148Z,2.00
2022-12-24T08:03:33.242Z,2.00
2022-12-24T08:06:00.295Z,4.00
2022-12-24T08:08:28.449Z,15.00
2022-12-24T08:11:01.377Z,30.00
2022-12-24T08:13:28.375Z,9.67
2022-12-24T08:15:55.259Z,9.00
2022-12-24T08:18:22.412Z,9.33
2022-12-24T08:20:49.250Z,9.00
2022-12-24T08:23:16.531Z,15.25
2022-12-24T08:25:48.064Z,14.33
2022-12-24T08:28:18.726Z,3.33
2022-12-24T08:30:48.031Z,14.25
2022-12-24T08:33:14.865Z,36.00
2022-12-24T08:35:46.562Z,18.50
2022-12-24T08:42:39.244Z,3.50
2022-12-24T08:45:18.915Z,6.00
2022-12-24T08:48:12.240Z,5.67
2022-12-24T08:51:44.599Z,4.33
2022-12-24T08:54:57.240Z,5.33
2022-12-24T08:57:25.144Z,2.50
2022-12-24T09:17:13.123Z,4.00
2022-12-24T09:19:40.098Z,4.00
2022-12-24T09:22:06.874Z,4.00
2022-12-24T09:24:35.598Z,2.75
2022-12-24T09:27:02.433Z,2.25
2022-12-24T09:29:29.685Z,1.50
2022-12-24T09:31:56.838Z,2.25
2022-12-24T09:34:30.141Z,4.50
2022-12-24T09:36:57.641Z,5.75
2022-12-24T09:39:24.404Z,6.33
2022-12-24T09:42:07.790Z,3.25
2022-12-24T09:44:43.980Z,5.00
2022-12-24T09:47:49.114Z,2.00
2022-12-24T09:51:21.698Z,2.75
2022-12-24T10:04:02.776Z,1.00
2022-12-24T10:06:40.106Z,3.25
2022-12-24T10:09:24.089Z,3.75
2022-12-24T10:12:00.838Z,2.75
2022-12-24T10:14:55.375Z,2.75
2022-12-24T10:17:45.391Z,6.75
2022-12-24T10:20:37.192Z,3.75
2022-12-24T10:23:18.341Z,4.00
2022-12-24T10:25:59.440Z,5.00
2022-12-24T10:28:55.123Z,2.25
2022-12-24T10:31:29.055Z,5.25
2022-12-24T10:34:01.936Z,5.75
2022-12-24T10:36:32.087Z,2.00
2022-12-24T10:38:59.761Z,2.75
2022-12-24T10:41:29.848Z,3.25
2022-12-24T10:43:59.267Z,6.25
2022-12-24T10:46:38.357Z,4.75
2022-12-24T10:49:12.225Z,2.75
2022-12-24T10:51:50.854Z,2.25
2022-12-24T10:54:26.550Z,2.25
2022-12-24T10:56:59.119Z,3.75
2022-12-24T10:59:29.715Z,3.50
2022-12-24T11:01:59.373Z,3.00
2022-12-24T11:04:29.820Z,1.75
2022-12-24T11:07:01.068Z,7.25
2022-12-24T11:09:32.701Z,2.25
2022-12-24T11:12:09.357Z,3.25
2022-12-24T11:14:39.049Z,3.25
2022-12-24T11:17:06.232Z,15.00
2022-12-24T11:19:38.890Z,4.50
2022-12-24T11:22:25.006Z,3.00
2022-12-24T11:25:04.327Z,4.25
2022-12-24T11:27:40.375Z,2.50
2022-12-24T11:30:29.185Z,2.25
2022-12-24T11:33:21.174Z,2.50
2022-12-24T11:35:58.123Z,3.00
2022-12-24T11:38:28.487Z,1.75
2022-12-24T11:41:03.982Z,4.50
2022-12-24T11:43:40.721Z,3.00
2022-12-24T11:46:37.583Z,2.00
2022-12-24T11:49:23.338Z,2.75
2022-12-24T11:52:21.973Z,3.75
2022-12-24T11:55:13.728Z,1.25
2022-12-24T11:57:55.963Z,2.50
2022-12-24T12:00:31.574Z,1.00
2022-12-24T12:03:30.857Z,2.00
2022-12-24T12:06:09.781Z,2.00
2022-12-24T12:08:40.873Z,5.00
2022-12-24T12:11:15.309Z,4.75
2022-12-24T12:13:46.635Z,1.67
2022-12-24T12:30:22.315Z,2.00
2022-12-24T12:32:58.959Z,2.50
2022-12-24T12:35:34.041Z,2.50
2022-12-24T12:38:05.227Z,2.00
2022-12-24T12:41:02.096Z,1.75
2022-12-24T12:44:00.035Z,2.00
2022-12-24T12:46:47.723Z,2.50
2022-12-24T12:49:32.989Z,3.25
2022-12-24T12:57:04.921Z,5.00
2022-12-24T12:59:38.555Z,2.25
2022-12-24T13:02:38.902Z,4.00
2022-12-24T13:06:11.344Z,3.75
2022-12-24T13:09:13.405Z,4.00
2022-12-24T13:12:03.848Z,4.00
2022-12-24T13:14:58.454Z,4.00
2022-12-24T13:18:01.889Z,12.00
2022-12-24T13:20:32.528Z,3.25
2022-12-24T13:23:08.560Z,4.00
2022-12-24T13:25:40.082Z,4.25
2022-12-24T13:28:30.397Z,3.75
2022-12-24T13:31:26.932Z,3.00
2022-12-24T13:33:58.408Z,3.00
2022-12-24T13:36:45.669Z,1.25
2022-12-24T13:39:19.830Z,3.00
2022-12-24T13:41:52.801Z,4.50
2022-12-24T13:44:29.396Z,3.75
2022-12-24T13:47:02.712Z,2.50
2022-12-24T13:49:37.143Z,3.50
2022-12-24T13:52:26.049Z,1.25
2022-12-24T13:55:13.290Z,3.50
2022-12-24T13:57:45.285Z,5.25
2022-12-24T14:00:39.211Z,3.25
2022-12-24T14:03:24.413Z,9.25
2022-12-24T14:05:58.243Z,5.75
2022-12-24T14:08:46.292Z,8.75
2022-12-24T14:11:17.099Z,3.75
2022-12-24T14:14:28.349Z,3.50
2022-12-24T14:16:59.858Z,10.00
2022-12-24T14:19:39.115Z,10.00
2022-12-24T14:22:28.596Z,8.67
2022-12-24T14:24:59.362Z,7.00
2022-12-24T14:27:39.377Z,9.67
2022-12-24T14:30:17.371Z,5.00
2022-12-24T14:32:44.425Z,3.00
2022-12-24T14:35:18.182Z,2.00
2022-12-24T14:37:51.888Z,5.00
2022-12-24T14:40:26.350Z,3.67
2022-12-24T14:43:05.798Z,5.25
2022-12-24T14:45:45.891Z,6.67
2022-12-24T14:48:27.168Z,4.67
2022-12-24T14:51:10.985Z,2.00
2022-12-24T14:54:05.912Z,2.67
2022-12-24T14:56:33.117Z,2.33
2022-12-24T14:59:00.280Z,5.00
2022-12-24T15:01:31.071Z,5.25
2022-12-24T15:04:05.339Z,5.25
2022-12-24T15:06:36.834Z,3.67
2022-12-24T15:09:10.486Z,3.33
2022-12-24T15:11:38.106Z,1.00
2022-12-24T15:14:05.973Z,2.00
2022-12-24T15:16:36.012Z,1.33
2022-12-24T15:19:06.750Z,4.67
2022-12-24T15:21:37.869Z,3.33
2022-12-24T15:24:23.952Z,2.00
2022-12-24T15:26:50.725Z,10.00
2022-12-24T15:29:23.599Z,20.75
2022-12-24T15:31:54.315Z,11.00
2022-12-24T15:34:34.767Z,5.67
2022-12-24T15:37:06.603Z,3.00
2022-12-24T15:39:35.006Z,4.25
2022-12-24T15:42:02.264Z,3.25
2022-12-24T15:44:35.289Z,4.75
2022-12-24T15:47:06.717Z,28.50
2022-12-24T15:49:35.191Z,34.25
2022-12-24T15:52:05.780Z,10.00
2022-12-24T15:54:34.982Z,6.00
2022-12-24T15:57:15.044Z,2.75
2022-12-24T15:59:42.873Z,9.25
2022-12-24T16:02:35.932Z,13.25
2022-12-24T16:05:36.241Z,19.00
2022-12-24T16:08:25.939Z,7.25
2022-12-24T16:11:11.550Z,13.00
2022-12-24T16:13:43.101Z,10.00
2022-12-24T16:16:15.278Z,19.25
2022-12-24T16:18:52.881Z,23.50
2022-12-24T16:21:25.052Z,21.25
2022-12-24T16:23:56.471Z,5.00
2022-12-24T16:26:24.673Z,9.00
2022-12-24T16:28:51.785Z,9.25
2022-12-24T16:31:29.526Z,7.00
2022-12-24T16:33:59.230Z,6.75
2022-12-24T16:36:26.316Z,6.75
2022-12-24T16:38:53.436Z,7.75
2022-12-24T16:41:20.238Z,6.75
2022-12-24T16:43:48.494Z,8.00
2022-12-24T16:46:16.069Z,6.00
2022-12-24T16:48:48.223Z,8.50
2022-12-24T16:51:15.138Z,8.50
2022-12-24T16:53:41.947Z,13.50
2022-12-24T16:56:09.019Z,17.25
2022-12-24T16:58:35.857Z,14.75
2022-12-24T17:01:09.315Z,11.75
2022-12-24T17:03:36.998Z,14.50
2022-12-24T17:06:07.035Z,16.00
2022-12-24T17:08:34.149Z,8.25
2022-12-24T17:11:00.879Z,0.00
2022-12-24T17:13:27.918Z,18.25
2022-12-24T17:15:54.745Z,11.25
2022-12-24T17:18:23.256Z,8.25
2022-12-24T17:20:59.165Z,8.50
2022-12-24T17:23:26.299Z,7.75
2022-12-24T17:25:53.197Z,8.25
2022-12-24T17:28:21.831Z,7.25
2022-12-24T17:30:49.578Z,10.00
2022-12-24T17:33:16.450Z,8.50
2022-12-24T17:35:44.982Z,11.00
2022-12-24T17:38:11.963Z,9.75
2022-12-24T17:40:39.069Z,23.00
2022-12-24T17:43:06.408Z,33.00
2022-12-24T17:45:33.370Z,20.00
2022-12-24T17:48:00.298Z,15.75
2022-12-24T17:50:27.789Z,13.50
2022-12-24T17:52:56.018Z,13.75
2022-12-24T17:55:23.200Z,11.25
2022-12-24T17:57:50.266Z,11.75
2022-12-24T18:00:18.546Z,15.00
2022-12-24T18:02:45.446Z,13.75
2022-12-24T18:05:13.337Z,13.25
2022-12-24T18:07:40.157Z,19.25
2022-12-24T18:10:10.452Z,17.75
2022-12-24T18:12:37.238Z,16.25
2022-12-24T18:15:05.795Z,16.75
2022-12-24T18:17:32.680Z,13.00
2022-12-24T18:19:59.935Z,14.00
2022-12-24T18:22:26.857Z,20.75
2022-12-24T18:24:53.692Z,29.50
2022-12-24T18:27:22.017Z,28.00
2022-12-24T18:29:49.608Z,54.00
2022-12-24T18:32:16.723Z,36.00
2022-12-24T18:34:43.542Z,17.00
2022-12-24T18:37:10.333Z,24.75
2022-12-24T18:39:38.278Z,16.25
2022-12-24T18:42:05.197Z,17.00
2022-12-24T18:44:33.632Z,10.75
2022-12-24T18:47:00.550Z,14.25
2022-12-24T18:49:27.520Z,17.50
2022-12-24T18:51:54.301Z,13.50
2022-12-24T18:54:21.199Z,15.25
2022-12-24T18:56:50.455Z,15.75
2022-12-24T18:59:17.409Z,20.75
2022-12-24T19:01:45.688Z,14.50
2022-12-24T19:04:12.613Z,14.50
2022-12-24T19:06:39.486Z,18.50
2022-12-24T19:09:06.383Z,19.50
2022-12-24T19:11:36.019Z,26.75
2022-12-24T19:14:06.254Z,25.25
2022-12-24T19:16:36.720Z,17.25
2022-12-24T19:19:08.588Z,16.00
2022-12-24T19:21:35.805Z,22.25
2022-12-24T19:24:03.681Z,17.00
2022-12-24T19:26:30.962Z,15.00
2022-12-24T19:28:57.757Z,18.00
2022-12-24T19:31:25.827Z,17.25
2022-12-24T19:33:56.146Z,16.50
2022-12-24T19:36:29.633Z,20.50
2022-12-24T19:38:58.209Z,26.25
2022-12-24T19:41:27.185Z,19.50
2022-12-24T19:43:58.571Z,34.25
2022-12-24T19:46:27.957Z,38.25
2022-12-24T19:48:59.127Z,38.00
2022-12-24T19:51:29.258Z,33.25
2022-12-24T19:53:59.059Z,38.00
2022-12-24T19:56:30.534Z,31.75
2022-12-24T19:58:59.032Z,41.50
2022-12-24T20:01:29.257Z,44.75
2022-12-24T20:03:56.821Z,38.50
2022-12-24T20:06:28.155Z,42.00
2022-12-24T20:08:58.946Z,45.75
2022-12-24T20:11:25.823Z,49.00
2022-12-24T20:13:57.175Z,51.50
2022-12-24T20:16:24.907Z,39.75
2022-12-24T20:18:52.552Z,43.25
2022-12-24T20:21:20.068Z,46.25
2022-12-24T20:23:48.687Z,46.00
2022-12-24T20:26:20.216Z,43.25
2022-12-24T20:28:48.081Z,43.00
2022-12-24T20:31:20.357Z,41.75
2022-12-24T20:33:48.118Z,34.50
2022-12-24T20:36:18.177Z,32.75
2022-12-24T20:38:45.925Z,31.00
2022-12-24T20:41:17.975Z,24.25
2022-12-24T20:43:48.541Z,34.00
2022-12-24T20:46:19.456Z,42.25
2022-12-24T20:48:53.302Z,42.25
2022-12-24T20:51:28.136Z,36.25
2022-12-24T20:54:01.646Z,20.25
2022-12-24T20:56:37.399Z,25.00
2022-12-24T20:59:12.240Z,26.25
2022-12-24T21:01:42.414Z,30.75
2022-12-24T21:04:12.455Z,26.25
2022-12-24T21:06:39.579Z,26.75
2022-12-24T21:09:06.610Z,24.00
2022-12-24T21:11:35.302Z,27.75
2022-12-24T21:14:02.946Z,22.00
2022-12-24T21:16:31.193Z,23.50
2022-12-24T21:18:58.619Z,20.50
2022-12-24T21:21:25.632Z,24.25
2022-12-24T21:23:54.272Z,23.75
2022-12-24T21:26:21.246Z,25.25
2022-12-24T21:28:49.707Z,30.00
2022-12-24T21:31:17.898Z,29.25
2022-12-24T21:33:45.935Z,32.75
2022-12-24T21:36:14.818Z,31.75
2022-12-24T21:38:42.579Z,29.50
2022-12-24T21:41:12.576Z,32.75
2022-12-24T21:43:40.077Z,45.75
2022-12-24T21:46:10.029Z,28.00
2022-12-24T21:48:37.859Z,31.25
2022-12-24T21:51:05.042Z,21.75
2022-12-24T21:53:31.874Z,35.50
2022-12-24T21:55:58.699Z,58.00
2022-12-24T21:58:25.537Z,52.50
2022-12-24T22:00:52.443Z,22.25
2022-12-24T22:03:20.907Z,22.75
2022-12-24T22:05:47.802Z,20.50
2022-12-24T22:08:14.647Z,37.25
2022-12-24T22:10:41.912Z,50.50
2022-12-24T22:13:09.030Z,61.33
2022-12-24T22:15:42.971Z,33.00
2022-12-24T22:18:10.218Z,27.00
2022-12-24T22:20:39.369Z,26.25
2022-12-24T22:23:06.904Z,16.75
2022-12-24T22:25:35.226Z,37.25
2022-12-24T22:28:02.617Z,29.75
2022-12-24T22:30:29.816Z,46.50
2022-12-24T22:32:57.404Z,29.50
2022-12-24T22:35:24.700Z,13.75
2022-12-24T22:37:57.765Z,11.50
2022-12-24T22:40:30.837Z,11.50
2022-12-24T22:42:57.675Z,13.50
2022-12-24T22:45:24.430Z,10.00
2022-12-24T22:47:51.433Z,9.50
2022-12-24T22:50:18.787Z,10.75
2022-12-24T22:52:45.697Z,14.00
2022-12-24T22:55:14.147Z,12.25
2022-12-24T22:57:43.316Z,15.50
2022-12-24T23:00:35.244Z,8.50
2022-12-24T23:03:02.501Z,12.50
2022-12-24T23:05:29.355Z,11.25
2022-12-24T23:07:56.530Z,11.00
2022-12-24T23:10:24.854Z,16.25
2022-12-24T23:12:53.552Z,24.75
2022-12-24T23:15:20.395Z,48.33
2022-12-24T23:17:48.815Z,52.67
2022-12-24T23:20:16.065Z,21.50
2022-12-24T23:22:42.884Z,36.50
2022-12-24T23:25:16.170Z,28.00
2022-12-24T23:27:48.940Z,14.25
2022-12-24T23:30:19.564Z,11.50
2022-12-24T23:32:56.104Z,14.75
2022-12-24T23:35:34.271Z,19.25
2022-12-24T23:38:06.716Z,11.75
2022-12-24T23:40:33.731Z,11.50
2022-12-24T23:43:01.926Z,9.50
2022-12-24T23:45:28.814Z,15.75
2022-12-24T23:47:55.585Z,46.75
2022-12-24T23:50:33.133Z,49.50
2022-12-24T23:58:03.371Z,12.00
